CheckWX is a tool to help pilots better visualize weather data.  It is not intended as a substitute for an official pre-flight weather briefing.

07:45:39 UTC

VTST METAR
Trang Airport
Thailand
Current

46 mins ago

VTST 150700Z 31011G21KT 9000 VCTS FEW020CB SCT023 24/22 Q1008 NOSIG
Observed
Sep-15 @ 07:00 UTC
Wind
  • 310° at 11 KTS
  • Gusting to 21 KTS
Visibility
9,000 meters
Flight Rules
VFR
Conditions
Area Thunderstorm
Cloud Levels
  • Few at 2,000' AGL
  • Scattered at 2,300' AGL
Temperature
24°C / 75°F
Dewpoint
22°C / 72°F
Humidity
89%
Altimeter
29.76" Hg
Pressure
1007.92 hPa
Previous

2 hours ago

VTST 150600Z 19006KT 9999 SCT020 29/26 Q1007 NOSIG
Observed
Sep-15 @ 06:00 UTC
Wind
  • 190° at 6 KTS
Visibility
10,000+ meters
Flight Rules
VFR
Cloud Levels
  • Scattered at 2,000' AGL
Temperature
29°C / 84°F
Dewpoint
26°C / 79°F
Heat Index
36°C / 96°F
Humidity
84%
Altimeter
29.73" Hg
Pressure
1006.92 hPa
Previous

3 hours ago

VTST 150500Z 28008KT 9999 VCSH SCT020 BKN100 30/25 Q1009 NOSIG
Observed
Sep-15 @ 05:00 UTC
Wind
  • 280° at 8 KTS
Visibility
10,000+ meters
Flight Rules
VFR
Cloud Levels
  • Scattered at 2,000' AGL
  • Broken at 10,000' AGL
Temperature
30°C / 86°F
Dewpoint
25°C / 77°F
Heat Index
36°C / 97°F
Humidity
75%
Altimeter
29.79" Hg
Pressure
1008.92 hPa